SCBA/BBA METAR and TAF weather

Enter ICAO airport designator
Station Type Date Time Source
SCBA METAR 2020/04/06 15:00 UTC NOAA

SCBA 061500Z 30023KT CAVOK 09/M01 Q1023


Station Type Date Time Source
SCBA Decoded METAR 2020/04/06 15:00 UTC NOAA

Balmaceda, Chile (SCBA) 45-55S 071-41W 520M
Apr 06, 2020 - 11:00 AM EDT / 2020.04.06 1500 UTC
Wind: from the WNW (300 degrees) at 26 MPH (23 KT):0
Visibility: greater than 7 mile(s):0
Temperature: 48 F (9 C)
Dew Point: 30 F (-1 C)
Relative Humidity: 49%
Pressure (altimeter): 30.21 in. Hg (1023 hPa)
ob: SCBA 061500Z 30023KT CAVOK 09/M01 Q1023
cycle: 15

Station Type Date Time Source
SCBA TAF 2020/04/06 12:03 UTC NOAA

TAF SCBA 061042Z 0612/0712 30010KT 9999 SCT025 TX13/0618Z TN04/0710Z
BECMG 0615/0617 30020KT FEW040
BECMG 0703/0705 30010KT

Example: see airport list